Time;durP1;ratioP1;P1;durP2;ratioP2;P2;SDS_P1;SDS_P2;PMS_P1;PMS_P2;Temp;Humidity;BMP_temperature;BMP_pressure;BME280_temperature;BME280_humidity;BME280_pressure;Samples;Min_cycle;Max_cycle;Signal;HPM_P1;HPM_P2
2021/05/06 00:11:16;;;;;;;10.10;1.03;;;14.60;99.90;;;;;;20659380;28;20290;-75
2021/05/06 00:42:29;;;;;;;0.47;0.47;;;14.30;99.90;;;;;;20695899;28;20708;-75
2021/05/06 01:13:22;;;;;;;0.20;0.17;;;14.40;99.90;;;;;;20701345;28;20206;-77
2021/05/06 01:23:27;;;;;;;0.80;0.70;;;14.40;99.90;;;;;;20704882;28;20238;-77
2021/05/06 01:33:36;;;;;;;0.43;0.43;;;14.40;99.90;;;;;;20719988;28;20201;-75
2021/05/06 01:43:46;;;;;;;0.30;0.30;;;14.40;99.90;;;;;;20704442;28;20238;-73
2021/05/06 02:04:10;;;;;;;0.53;0.53;;;14.60;99.90;;;;;;20693877;28;20234;-74
2021/05/06 02:14:13;;;;;;;0.87;0.87;;;14.80;99.90;;;;;;20697735;28;20198;-73
2021/05/06 02:24:16;;;;;;;0.20;0.20;;;14.90;99.90;;;;;;20697716;28;20221;-74
2021/05/06 02:34:19;;;;;;;0.83;0.57;;;14.90;99.90;;;;;;20680120;28;20194;-76
2021/05/06 02:44:23;;;;;;;1.73;1.20;;;15.10;99.90;;;;;;20696962;28;20226;-76
2021/05/06 02:54:29;;;;;;;0.50;0.50;;;15.10;99.90;;;;;;20680768;28;20598;-73
2021/05/06 03:04:32;;;;;;;0.67;0.67;;;15.20;99.90;;;;;;20677750;28;20710;-74
2021/05/06 03:24:58;;;;;;;1.07;1.00;;;15.40;99.90;;;;;;20675312;28;20226;-75
2021/05/06 04:16:52;;;;;;;0.33;0.30;;;15.20;99.90;;;;;;20370345;29;20611;-72
2021/05/06 04:27:07;;;;;;;0.80;0.80;;;15.10;99.90;;;;;;20674333;28;20226;-74
2021/05/06 04:37:10;;;;;;;1.03;0.60;;;15.10;99.90;;;;;;20708721;28;20194;-70
2021/05/06 04:57:55;;;;;;;2.10;1.90;;;15.10;99.90;;;;;;20723967;28;20633;-75
2021/05/06 05:08:04;;;;;;;2.00;1.47;;;15.30;99.90;;;;;;20716690;28;20230;-74
2021/05/06 05:18:20;;;;;;;0.40;0.40;;;15.30;99.90;;;;;;20711206;28;20201;-76
2021/05/06 05:28:23;;;;;;;1.07;0.80;;;15.50;99.90;;;;;;20711209;28;20272;-75
2021/05/06 05:38:35;;;;;;;0.67;0.67;;;15.60;99.90;;;;;;20705870;28;20318;-75
2021/05/06 05:59:00;;;;;;;0.53;0.53;;;16.30;99.90;;;;;;20707700;28;20266;-77
2021/05/06 06:09:05;;;;;;;1.60;0.93;;;16.60;99.90;;;;;;20703155;28;20626;-76
2021/05/06 06:19:07;;;;;;;0.60;0.40;;;16.80;99.90;;;;;;20700400;28;20217;-76
2021/05/06 06:29:14;;;;;;;1.07;0.60;;;17.20;99.90;;;;;;20698523;28;20219;-74
2021/05/06 06:39:16;;;;;;;0.80;0.40;;;17.30;99.90;;;;;;20701236;28;20195;-75
2021/05/06 06:49:22;;;;;;;0.73;0.73;;;17.80;99.90;;;;;;20697203;28;20238;-76
2021/05/06 06:59:26;;;;;;;1.77;1.67;;;17.80;99.90;;;;;;20695440;28;20309;-74
2021/05/06 07:09:30;;;;;;;2.13;1.33;;;18.10;99.90;;;;;;20693016;28;20230;-74
2021/05/06 07:19:34;;;;;;;0.83;0.80;;;18.30;99.90;;;;;;20696502;28;20187;-76
2021/05/06 07:29:39;;;;;;;0.70;0.70;;;18.30;99.90;;;;;;20695660;28;20242;-73
2021/05/06 07:39:43;;;;;;;11.27;1.67;;;18.40;99.90;;;;;;20695117;28;20237;-73
2021/05/06 07:49:49;;;;;;;1.43;1.00;;;18.80;99.90;;;;;;20679947;28;20222;-73
2021/05/06 07:59:55;;;;;;;1.10;0.90;;;18.30;99.90;;;;;;20708072;28;20396;-72
2021/05/06 08:10:00;;;;;;;6.07;2.40;;;18.90;99.90;;;;;;20703219;28;20408;-75
2021/05/06 08:20:05;;;;;;;1.53;0.83;;;18.70;99.90;;;;;;20685694;28;20642;-75
2021/05/06 08:30:11;;;;;;;1.83;1.70;;;18.60;99.90;;;;;;20703860;28;20218;-74
2021/05/06 08:40:14;;;;;;;1.37;1.27;;;18.70;99.90;;;;;;20700398;28;20205;-76
2021/05/06 08:50:20;;;;;;;2.77;2.20;;;18.90;99.90;;;;;;20701300;28;20246;-75
2021/05/06 09:00:23;;;;;;;2.37;1.23;;;18.70;99.90;;;;;;20672318;28;777249;-71
2021/05/06 09:10:39;;;;;;;1.73;1.60;;;19.20;99.90;;;;;;20705234;28;20273;-76
2021/05/06 09:20:42;;;;;;;0.70;0.60;;;19.60;99.90;;;;;;20706072;28;20645;-76
2021/05/06 09:30:54;;;;;;;1.43;1.13;;;19.20;99.90;;;;;;20703358;28;20226;-74
2021/05/06 09:41:01;;;;;;;0.80;0.40;;;19.00;99.90;;;;;;20706501;28;20285;-74
2021/05/06 09:51:05;;;;;;;1.43;0.67;;;18.90;99.90;;;;;;20703973;28;20229;-74
2021/05/06 10:01:11;;;;;;;1.00;0.90;;;19.00;99.90;;;;;;20706247;28;20236;-74
2021/05/06 10:11:21;;;;;;;0.20;0.20;;;19.10;99.90;;;;;;20715621;28;20210;-74
2021/05/06 10:21:24;;;;;;;4.60;0.43;;;19.30;99.90;;;;;;20700028;28;20203;-75
2021/05/06 10:31:29;;;;;;;0.23;0.20;;;19.40;99.90;;;;;;20699713;28;20453;-75
2021/05/06 10:41:35;;;;;;;0.47;0.40;;;19.70;99.90;;;;;;20696244;28;20687;-77
2021/05/06 10:51:48;;;;;;;0.20;0.10;;;19.80;99.90;;;;;;20697406;28;20349;-74
2021/05/06 11:01:51;;;;;;;0.50;0.40;;;19.70;99.90;;;;;;20697027;28;20510;-76
2021/05/06 11:12:32;;;;;;;0.67;0.63;;;20.00;99.90;;;;;;20674545;28;20281;-74
2021/05/06 11:22:54;;;;;;;0.30;0.13;;;20.60;99.90;;;;;;20676220;28;20700;-75
2021/05/06 11:32:57;;;;;;;1.20;0.50;;;21.30;99.90;;;;;;20696376;28;20687;-75
2021/05/06 11:43:01;;;;;;;0.50;0.27;;;20.90;99.90;;;;;;20693825;28;20249;-82
2021/05/06 11:53:06;;;;;;;5.63;1.27;;;20.70;99.90;;;;;;20729902;28;20202;-78
2021/05/06 12:03:11;;;;;;;0.20;0.20;;;21.50;99.90;;;;;;20694644;28;20296;-75
2021/05/06 12:13:16;;;;;;;0.27;0.20;;;21.40;99.90;;;;;;20696904;28;20675;-75
2021/05/06 12:23:21;;;;;;;0.40;0.40;;;21.40;99.90;;;;;;20697181;28;20242;-76
2021/05/06 12:33:31;;;;;;;0.83;0.47;;;22.30;99.90;;;;;;20698485;28;20195;-75
2021/05/06 12:43:37;;;;;;;3.50;1.33;;;22.10;99.90;;;;;;20679195;28;20691;-77
2021/05/06 12:54:01;;;;;;;1.03;0.60;;;22.30;99.90;;;;;;20713026;28;20607;-73
2021/05/06 13:04:23;;;;;;;4.93;0.70;;;22.50;99.90;;;;;;20710283;28;20715;-77
2021/05/06 13:14:29;;;;;;;1.10;0.83;;;22.90;99.90;;;;;;20611330;28;20204;-80
2021/05/06 13:24:41;;;;;;;0.93;0.70;;;22.50;99.90;;;;;;20609327;28;20232;-77
2021/05/06 13:34:54;;;;;;;0.57;0.33;;;23.10;99.90;;;;;;20627417;28;20278;-79
2021/05/06 13:45:00;;;;;;;1.20;0.70;;;22.60;99.90;;;;;;20613385;28;20843;-80
2021/05/06 13:55:03;;;;;;;0.90;0.75;;;23.50;99.90;;;;;;20587561;28;20226;-80
2021/05/06 14:05:08;;;;;;;1.02;0.30;;;24.20;99.90;;;;;;20676424;28;20233;-80
2021/05/06 14:15:13;;;;;;;3.25;1.05;;;23.60;99.90;;;;;;20703173;28;20207;-82
2021/05/06 14:25:28;;;;;;;1.05;0.60;;;24.50;99.90;;;;;;20690102;28;20254;-78
2021/05/06 14:45:50;;;;;;;1.05;0.80;;;22.90;99.90;;;;;;20703010;28;21096;-75
2021/05/06 14:55:54;;;;;;;0.77;0.70;;;23.30;99.90;;;;;;20704016;28;20597;-74
2021/05/06 15:05:58;;;;;;;6.37;0.40;;;22.50;99.90;;;;;;20713657;28;20719;-76
2021/05/06 15:16:01;;;;;;;1.13;0.93;;;22.70;99.90;;;;;;20735426;28;20195;-77
2021/05/06 15:26:04;;;;;;;3.43;1.13;;;22.90;99.90;;;;;;20700427;28;20314;-80
2021/05/06 15:36:10;;;;;;;0.90;0.83;;;22.10;99.90;;;;;;20681062;28;20269;-78
2021/05/06 15:46:16;;;;;;;5.20;0.70;;;22.60;99.90;;;;;;20699159;28;20223;-77
2021/05/06 15:56:20;;;;;;;0.20;0.10;;;22.70;99.90;;;;;;20698040;28;20198;-70
2021/05/06 16:06:24;;;;;;;0.37;0.37;;;22.30;99.90;;;;;;20698267;28;20714;-81
2021/05/06 16:16:26;;;;;;;2.60;0.73;;;21.90;99.90;;;;;;20698530;28;20666;-78
2021/05/06 16:26:30;;;;;;;18.07;1.63;;;20.70;99.90;;;;;;20712807;28;20583;-83
2021/05/06 16:36:38;;;;;;;0.67;0.33;;;19.80;99.90;;;;;;20693238;28;20191;-77
2021/05/06 16:46:44;;;;;;;5.77;1.00;;;20.20;99.90;;;;;;20706177;28;20223;-75
2021/05/06 16:56:50;;;;;;;0.57;0.57;;;20.90;99.90;;;;;;20709152;28;20241;-75
2021/05/06 17:07:18;;;;;;;1.20;0.40;;;21.40;99.90;;;;;;20705134;28;20242;-78
2021/05/06 17:17:21;;;;;;;1.30;1.20;;;21.90;99.90;;;;;;20689953;28;20720;-77
2021/05/06 17:27:27;;;;;;;0.50;0.47;;;20.70;99.90;;;;;;20703892;28;20738;-78
2021/05/06 17:37:30;;;;;;;4.90;1.03;;;20.60;99.90;;;;;;20685901;28;20241;-77
2021/05/06 17:47:38;;;;;;;0.63;0.47;;;21.30;99.90;;;;;;20687582;28;20231;-79
2021/05/06 17:57:44;;;;;;;1.43;0.77;;;20.90;99.90;;;;;;20688843;28;20201;-82
2021/05/06 18:07:48;;;;;;;0.30;0.20;;;20.80;99.90;;;;;;20700483;28;20477;-77
2021/05/06 18:17:54;;;;;;;5.53;0.50;;;20.50;99.90;;;;;;20701905;28;20202;-75
2021/05/06 18:28:00;;;;;;;0.20;0.20;;;19.40;99.90;;;;;;20684105;28;20252;-77
2021/05/06 18:38:03;;;;;;;1.80;1.03;;;19.70;99.90;;;;;;20697610;28;20199;-76
2021/05/06 18:48:08;;;;;;;0.87;0.73;;;19.70;99.90;;;;;;20700216;28;20288;-75
2021/05/06 18:58:13;;;;;;;10.87;0.90;;;19.50;99.90;;;;;;20696338;28;20214;-75
2021/05/06 19:08:18;;;;;;;0.50;0.40;;;18.90;99.90;;;;;;20694427;28;21064;-73
2021/05/06 19:18:21;;;;;;;1.10;1.00;;;18.00;99.90;;;;;;20690915;28;20197;-76
2021/05/06 19:28:25;;;;;;;1.03;0.87;;;18.30;99.90;;;;;;20689220;28;20253;-76
2021/05/06 19:38:28;;;;;;;0.70;0.70;;;18.70;99.90;;;;;;20693226;28;20199;-76
2021/05/06 19:48:31;;;;;;;0.63;0.50;;;18.70;99.90;;;;;;20692228;28;20332;-77
2021/05/06 19:58:35;;;;;;;14.83;1.53;;;18.50;99.90;;;;;;20699540;28;20183;-80
2021/05/06 20:08:39;;;;;;;0.60;0.60;;;18.70;99.90;;;;;;20709084;28;20296;-80
2021/05/06 20:18:43;;;;;;;0.50;0.20;;;18.60;99.90;;;;;;20692355;28;20195;-81
2021/05/06 20:28:47;;;;;;;4.27;2.53;;;18.50;99.90;;;;;;20677370;28;21031;-79
2021/05/06 20:38:50;;;;;;;0.97;0.90;;;18.50;99.90;;;;;;20713838;28;20198;-82
2021/05/06 20:48:54;;;;;;;1.27;1.03;;;18.00;99.90;;;;;;20672812;28;20269;-79
2021/05/06 20:58:57;;;;;;;0.20;0.20;;;18.00;99.90;;;;;;20673419;28;20190;-81
2021/05/06 21:09:02;;;;;;;1.07;0.83;;;17.70;99.90;;;;;;20706021;28;20771;-81
2021/05/06 21:19:04;;;;;;;2.00;0.83;;;17.80;99.90;;;;;;20692158;28;20689;-78
2021/05/06 21:29:10;;;;;;;0.70;0.70;;;17.60;99.90;;;;;;20679588;28;20226;-80
2021/05/06 21:39:15;;;;;;;0.73;0.73;;;17.40;99.90;;;;;;20682966;28;20610;-81
2021/05/06 21:49:19;;;;;;;0.63;0.63;;;16.90;99.90;;;;;;20682107;28;20412;-79
2021/05/06 21:59:21;;;;;;;0.80;0.77;;;16.70;99.90;;;;;;20680106;28;20253;-80
2021/05/06 22:09:27;;;;;;;0.30;0.30;;;16.60;99.90;;;;;;20697515;28;20429;-79
2021/05/06 22:19:30;;;;;;;1.40;1.00;;;16.40;99.90;;;;;;20675737;28;20249;-80
2021/05/06 22:29:34;;;;;;;0.40;0.37;;;16.30;99.90;;;;;;20699111;28;20595;-82
2021/05/06 22:39:36;;;;;;;0.27;0.23;;;16.20;99.90;;;;;;20680982;28;20249;-80
2021/05/06 22:49:40;;;;;;;0.20;0.10;;;16.10;99.90;;;;;;20701993;28;20650;-77
2021/05/06 22:59:43;;;;;;;1.80;0.57;;;16.20;99.90;;;;;;20694155;28;20297;-81
2021/05/06 23:09:47;;;;;;;0.50;0.50;;;16.10;99.90;;;;;;20687027;28;20508;-81
2021/05/06 23:19:51;;;;;;;0.77;0.70;;;16.00;99.90;;;;;;20657324;28;20653;-80
2021/05/06 23:29:55;;;;;;;0.20;0.20;;;15.80;99.90;;;;;;20693965;28;20244;-81
2021/05/06 23:39:58;;;;;;;0.27;0.27;;;15.60;99.90;;;;;;20659843;28;20253;-80
2021/05/06 23:50:04;;;;;;;0.57;0.57;;;15.50;99.90;;;;;;20695247;28;20230;-80
